地図

経路データ

SID SEASON NUMBER BASIN SUBBASIN NAME ISO_TIME NATURE LAT LON WMO_WIND WMO_PRES WMO_AGENCY TRACK_TYPE DIST2LAND LANDFALL IFLAG USA_AGENCY USA_ATCF_ID USA_LAT USA_LON USA_RECORD USA_STATUS USA_WIND USA_PRES USA_SSHS USA_R34_NE USA_R34_SE USA_R34_SW USA_R34_NW USA_R50_NE USA_R50_SE USA_R50_SW USA_R50_NW USA_R64_NE USA_R64_SE USA_R64_SW USA_R64_NW USA_POCI USA_ROCI USA_RMW USA_EYE TOKYO_LAT TOKYO_LON TOKYO_GRADE TOKYO_WIND TOKYO_PRES TOKYO_R50_DIR TOKYO_R50_LONG TOKYO_R50_SHORT TOKYO_R30_DIR TOKYO_R30_LONG TOKYO_R30_SHORT TOKYO_LAND CMA_LAT CMA_LON CMA_CAT CMA_WIND CMA_PRES HKO_LAT HKO_LON HKO_CAT HKO_WIND HKO_PRES NEWDELHI_LAT NEWDELHI_LON NEWDELHI_GRADE NEWDELHI_WIND NEWDELHI_PRES NEWDELHI_CI NEWDELHI_DP NEWDELHI_POCI REUNION_LAT REUNION_LON REUNION_TYPE REUNION_WIND REUNION_PRES REUNION_TNUM REUNION_CI REUNION_RMW REUNION_R34_NE REUNION_R34_SE REUNION_R34_SW REUNION_R34_NW REUNION_R50_NE REUNION_R50_SE REUNION_R50_SW REUNION_R50_NW REUNION_R64_NE REUNION_R64_SE REUNION_R64_SW REUNION_R64_NW BOM_LAT BOM_LON BOM_TYPE BOM_WIND BOM_PRES BOM_TNUM BOM_CI BOM_RMW BOM_R34_NE BOM_R34_SE BOM_R34_SW BOM_R34_NW BOM_R50_NE BOM_R50_SE BOM_R50_SW BOM_R50_NW BOM_R64_NE BOM_R64_SE BOM_R64_SW BOM_R64_NW BOM_ROCI BOM_POCI BOM_EYE BOM_POS_METHOD BOM_PRES_METHOD NADI_LAT NADI_LON NADI_CAT NADI_WIND NADI_PRES WELLINGTON_LAT WELLINGTON_LON WELLINGTON_WIND WELLINGTON_PRES DS824_LAT DS824_LON DS824_STAGE DS824_WIND DS824_PRES TD9636_LAT TD9636_LON TD9636_STAGE TD9636_WIND TD9636_PRES TD9635_LAT TD9635_LON TD9635_WIND TD9635_PRES TD9635_ROCI NEUMANN_LAT NEUMANN_LON NEUMANN_CLASS NEUMANN_WIND NEUMANN_PRES MLC_LAT MLC_LON MLC_CLASS MLC_WIND MLC_PRES USA_GUST BOM_GUST BOM_GUST_PER REUNION_GUST REUNION_GUST_PER USA_SEAHGT USA_SEARAD_NE USA_SEARAD_SE USA_SEARAD_SW USA_SEARAD_NW STORM_SPEED STORM_DIR
1921020S15150 1921 3 SP EA NOT_NAMED 1921-01-19 23:00:00 NR -14.9000 149.900 bom main 471 461 ______O_______ -1 -14.9000 149.900 7 314
1921020S15150 1921 3 SP EA NOT_NAMED 1921-01-20 00:00:00 TS -14.8174 149.812 main 461 441 ______P__O____ -1 -14.8261 149.818 -14.8000 149.800 TC 7 313
1921020S15150 1921 3 SP EA NOT_NAMED 1921-01-20 03:00:00 TS -14.6027 149.565 main 441 423 ______P__P____ -1 -14.6054 149.574 -14.5986 149.551 TC 6 312
1921020S15150 1921 3 SP EA NOT_NAMED 1921-01-20 06:00:00 TS -14.3934 149.320 main 425 409 ______P__P____ -1 -14.3888 149.332 -14.3995 149.304 TC 6 311
1921020S15150 1921 3 SP EA NOT_NAMED 1921-01-20 09:00:00 TS -14.1925 149.079 main 409 395 ______P__P____ -1 -14.1797 149.095 -14.2053 149.063 TC 6 311
1921020S15150 1921 3 SP EA NOT_NAMED 1921-01-20 12:00:00 TS -14.0000 148.846 main 393 380 ______P__P____ -1 -13.9813 148.864 -14.0186 148.828 TC 6 310
1921020S15150 1921 3 SP EA NOT_NAMED 1921-01-20 15:00:00 TS -13.8196 148.622 main 380 364 ______P__P____ -1 -13.7971 148.641 -13.8421 148.602 TC 6 309
1921020S15150 1921 3 SP EA NOT_NAMED 1921-01-20 18:00:00 TS -13.6544 148.408 main 364 354 ______P__P____ -1 -13.6302 148.429 -13.6785 148.387 TC 5 308
1921020S15150 1921 3 SP EA NOT_NAMED 1921-01-20 21:00:00 TS -13.5072 148.207 main 354 345 ______P__P____ -1 -13.4842 148.227 -13.5302 148.186 TC 5 306
1921020S15150 1921 3 SP EA NOT_NAMED 1921-01-20 23:00:00 TS -13.4206 148.080 bom main 351 341 ______O__P____ -1 -13.4000 148.100 -13.4412 148.060 TC 4 305
1921020S15150 1921 3 SP EA NOT_NAMED 1921-01-21 00:00:00 TS -13.3811 148.019 main 341 338 ______P__O____ -1 -13.3622 148.039 -13.4000 148.000 TC 4 302
1921020S15150 1921 3 SP EA NOT_NAMED 1921-01-21 03:00:00 TS -13.2767 147.847 main 330 328 ______P__P____ -1 -13.2641 147.864 -13.2893 147.831 TC 4 301
1921020S15150 1921 3 SP EA NOT_NAMED 1921-01-21 06:00:00 TS -13.1895 147.688 main 328 318 ______P__P____ -1 -13.1845 147.701 -13.1946 147.676 TC 3 298
1921020S15150 1921 3 SP EA NOT_NAMED 1921-01-21 09:00:00 TS -13.1144 147.540 main 318 310 ______P__P____ -1 -13.1175 147.547 -13.1112 147.533 TC 3 297
1921020S15150 1921 3 SP EA NOT_NAMED 1921-01-21 12:00:00 TS -13.0459 147.400 main 318 310 ______P__P____ -1 -13.0574 147.401 -13.0345 147.399 TC 3 297
1921020S15150 1921 3 SP EA NOT_NAMED 1921-01-21 15:00:00 TS -12.9789 147.266 main 310 303 ______P__P____ -1 -12.9982 147.261 -12.9597 147.271 TC 3 298
1921020S15150 1921 3 SP EA NOT_NAMED 1921-01-21 18:00:00 TS -12.9081 147.136 main 303 296 ______P__P____ -1 -12.9340 147.124 -12.8822 147.147 TC 3 301
1921020S15150 1921 3 SP EA NOT_NAMED 1921-01-21 21:00:00 TS -12.8281 147.007 main 305 298 ______P__P____ -1 -12.8589 146.990 -12.7972 147.025 TC 3 304
1921020S15150 1921 3 SP EA NOT_NAMED 1921-01-21 23:00:00 TS -12.7670 146.921 bom main 298 298 ______O__P____ -1 -12.8000 146.900 -12.7340 146.942 TC 3 307
1921020S15150 1921 3 SP EA NOT_NAMED 1921-01-22 00:00:00 TS -12.7310 146.874 main 303 296 ______P__O____ -1 -12.7620 146.849 -12.7000 146.900 TC 4 310
1921020S15150 1921 3 SP EA NOT_NAMED 1921-01-22 03:00:00 TS -12.6073 146.722 main 300 290 ______P__P____ -1 -12.6395 146.695 -12.5752 146.749 TC 4 311
1921020S15150 1921 3 SP EA NOT_NAMED 1921-01-22 06:00:00 TS -12.4727 146.570 main 294 284 ______P__P____ -1 -12.5053 146.543 -12.4401 146.596 TC 4 313
1921020S15150 1921 3 SP EA NOT_NAMED 1921-01-22 09:00:00 TS -12.3286 146.419 main 284 280 ______P__P____ -1 -12.3611 146.394 -12.2962 146.445 TC 4 316
1921020S15150 1921 3 SP EA NOT_NAMED 1921-01-22 12:00:00 TS -12.1767 146.274 main 280 268 ______P__P____ -1 -12.2082 146.250 -12.1451 146.297 TC 4 318
1921020S15150 1921 3 SP EA NOT_NAMED 1921-01-22 15:00:00 TS -12.0184 146.135 main 275 266 ______P__P____ -1 -12.0484 146.114 -11.9884 146.156 TC 4 321
1921020S15150 1921 3 SP EA NOT_NAMED 1921-01-22 18:00:00 TS -11.8554 146.005 main 274 265 ______P__P____ -1 -11.8832 145.986 -11.8276 146.024 TC 4 324
1921020S15150 1921 3 SP EA NOT_NAMED 1921-01-22 21:00:00 TS -11.6892 145.888 main 266 258 ______P__P____ -1 -11.7141 145.870 -11.6643 145.905 TC 4 327
1921020S15150 1921 3 SP EA NOT_NAMED 1921-01-22 23:00:00 TS -11.5774 145.817 bom main 267 260 ______O__P____ -1 -11.6000 145.800 -11.5548 145.833 TC 4 326
1921020S15150 1921 3 SP EA NOT_NAMED 1921-01-23 00:00:00 TS -11.5148 145.764 main 260 260 ______P__O____ -1 -11.5296 145.728 -11.5000 145.800 TC 5 321
1921020S15150 1921 3 SP EA NOT_NAMED 1921-01-23 03:00:00 TS -11.2944 145.586 main 260 250 ______P__P____ -1 -11.3081 145.503 -11.2807 145.668 TC 6 323
1921020S15150 1921 3 SP EA NOT_NAMED 1921-01-23 06:00:00 TS -11.0658 145.414 main 258 250 ______P__P____ -1 -11.0797 145.283 -11.0518 145.545 TC 6 325
1921020S15150 1921 3 SP EA NOT_NAMED 1921-01-23 09:00:00 TS -10.8410 145.265 main 242 235 ______P__P____ -1 -10.8557 145.093 -10.8262 145.437 TC 5 330
1921020S15150 1921 3 SP EA NOT_NAMED 1921-01-23 12:00:00 TS -10.6321 145.155 main 235 235 ______P__P____ -1 -10.6474 144.956 -10.6168 145.354 TC 4 337
1921020S15150 1921 3 SP EA NOT_NAMED 1921-01-23 15:00:00 TS -10.4513 145.098 main 235 219 ______P__P____ -1 -10.4661 144.896 -10.4366 145.301 TC 3 353
1921020S15150 1921 3 SP EA NOT_NAMED 1921-01-23 18:00:00 TS -10.3108 145.112 main 219 203 ______P__P____ -1 -10.3230 144.938 -10.2985 145.286 TC 3 25
1921020S15150 1921 3 SP EA NOT_NAMED 1921-01-23 21:00:00 TS -10.2224 145.211 main 203 196 ______P__P____ -1 -10.2295 145.106 -10.2153 145.316 TC 3 63
1921020S15150 1921 3 SP EA NOT_NAMED 1921-01-23 23:00:00 TS -10.1984 145.333 bom main 196 188 ______O__P____ -1 -10.2000 145.300 -10.1968 145.366 TC 4 82
1921020S15150 1921 3 SP EA NOT_NAMED 1921-01-24 00:00:00 TS -10.1961 145.413 main 188 173 ______P__O____ -1 -10.1922 145.427 -10.2000 145.400 TC 5 95
1921020S15150 1921 3 SP EA NOT_NAMED 1921-01-24 02:00:00 TS -10.2226 145.608 bom main 173 165 ______O__P____ -1 -10.2000 145.700 -10.2453 145.515 TC 6 100
1921020S15150 1921 3 SP EA NOT_NAMED 1921-01-24 03:00:00 TS -10.2484 145.706 main 165 156 ______P__P____ -1 -10.2171 145.828 -10.2798 145.584 TC 6 112
1921020S15150 1921 3 SP EA NOT_NAMED 1921-01-24 06:00:00 TS -10.3784 146.008 main 157 142 ______P__P____ -1 -10.3308 146.190 -10.4259 145.827 TC 7 119
1921020S15150 1921 3 SP EA NOT_NAMED 1921-01-24 09:00:00 TS -10.5765 146.315 main 151 143 ______P__P____ -1 -10.5253 146.518 -10.6277 146.112 TC 8 127
1921020S15150 1921 3 SP EA NOT_NAMED 1921-01-24 12:00:00 TS -10.8289 146.618 main 143 140 ______P__P____ -1 -10.7833 146.814 -10.8745 146.423 TC 8 133
1921020S15150 1921 3 SP EA NOT_NAMED 1921-01-24 15:00:00 TS -11.1219 146.909 main 142 142 ______P__P____ -1 -11.0881 147.075 -11.1556 146.743 TC 8 138
1921020S15150 1921 3 SP EA NOT_NAMED 1921-01-24 18:00:00 TS -11.4416 147.180 main 155 155 ______P__P____ -1 -11.4226 147.302 -11.4606 147.058 TC 8 142
1921020S15150 1921 3 SP EA NOT_NAMED 1921-01-24 21:00:00 TS -11.7743 147.421 main 190 187 ______P__P____ -1 -11.7698 147.493 -11.7788 147.349 TC 8 146
1921020S15150 1921 3 SP EA NOT_NAMED 1921-01-24 23:00:00 TS -11.9966 147.561 bom main 206 206 ______O__P____ -1 -12.0000 147.600 -11.9933 147.522 TC 7 149
1921020S15150 1921 3 SP EA NOT_NAMED 1921-01-25 00:00:00 TS -12.0938 147.616 main 217 217 ______P__O____ -1 -12.0875 147.632 -12.1000 147.600 TC 6 161
1921020S15150 1921 3 SP EA NOT_NAMED 1921-01-25 03:00:00 TS -12.3556 147.689 main 248 248 ______P__P____ -1 -12.3526 147.688 -12.3586 147.690 TC 5 169
1921020S15150 1921 3 SP EA NOT_NAMED 1921-01-25 06:00:00 TS -12.6247 147.720 main 270 270 ______P__P____ -1 -12.6237 147.701 -12.6257 147.740 TC 6 175
1921020S15150 1921 3 SP EA NOT_NAMED 1921-01-25 09:00:00 TS -12.9032 147.729 main 304 304 ______P__P____ -1 -12.9033 147.692 -12.9030 147.766 TC 6 0
1921020S15150 1921 3 SP EA NOT_NAMED 1921-01-25 12:00:00 TS -13.1932 147.736 main 328 314 ______P__P____ -1 -13.1942 147.684 -13.1921 147.787 TC 6 177
1921020S15150 1921 3 SP EA NOT_NAMED 1921-01-25 15:00:00 TS -13.4969 147.760 main 317 301 ______P__P____ -1 -13.4990 147.697 -13.4947 147.823 TC 6 173
1921020S15150 1921 3 SP EA NOT_NAMED 1921-01-25 18:00:00 TS -13.8164 147.822 main 301 296 ______P__P____ -1 -13.8204 147.752 -13.8125 147.891 TC 7 165
1921020S15150 1921 3 SP EA NOT_NAMED 1921-01-25 21:00:00 TS -14.1540 147.942 main 293 293 ______P__P____ -1 -14.1610 147.873 -14.1470 148.010 TC 7 158
1921020S15150 1921 3 SP EA NOT_NAMED 1921-01-25 23:00:00 TS -14.3901 148.064 bom main 307 303 ______O__P____ -1 -14.4000 148.000 -14.3802 148.128 TC 9 150
1921020S15150 1921 3 SP EA NOT_NAMED 1921-01-26 00:00:00 TS -14.5201 148.160 main 314 310 ______P__O____ -1 -14.5403 148.119 -14.5000 148.200 TC 11 140
1921020S15150 1921 3 SP EA NOT_NAMED 1921-01-26 03:00:00 TS -14.9523 148.560 main 345 345 ______P__P____ -1 -14.9839 148.541 -14.9208 148.579 TC 12 136
1921020S15150 1921 3 SP EA NOT_NAMED 1921-01-26 06:00:00 TS -15.4082 149.036 main 376 376 ______P__P____ -1 -15.4500 149.038 -15.3664 149.033 TC 13 134
1921020S15150 1921 3 SP EA NOT_NAMED 1921-01-26 09:00:00 TS -15.8733 149.562 main 408 408 ______P__P____ -1 -15.9235 149.585 -15.8232 149.539 TC 14 132
1921020S15150 1921 3 SP EA NOT_NAMED 1921-01-26 12:00:00 TS -16.3333 150.114 main 443 432 ______P__P____ -1 -16.3894 150.155 -16.2772 150.073 TC 14 130
1921020S15150 1921 3 SP EA NOT_NAMED 1921-01-26 15:00:00 TS -16.7742 150.665 main 438 426 ______P__P____ -1 -16.8332 150.720 -16.7151 150.611 TC 13 129
1921020S15150 1921 3 SP EA NOT_NAMED 1921-01-26 18:00:00 TS -17.1820 151.191 main 429 424 ______P__P____ -1 -17.2405 151.255 -17.1235 151.128 TC 12 129
1921020S15150 1921 3 SP EA NOT_NAMED 1921-01-26 21:00:00 TS -17.5432 151.664 main 437 429 ______P__P____ -1 -17.5971 151.730 -17.4894 151.599 TC 11 129
1921020S15150 1921 3 SP EA NOT_NAMED 1921-01-26 23:00:00 TS -17.7517 151.938 bom main 429 429 ______O__P____ -1 -17.8000 152.000 -17.7034 151.876 TC 9 129
1921020S15150 1921 3 SP EA NOT_NAMED 1921-01-27 00:00:00 TS -17.8342 152.042 main 437 437 ______P__O____ -1 -17.8683 152.084 -17.8000 152.000 TC 6 131
1921020S15150 1921 3 SP EA NOT_NAMED 1921-01-27 03:00:00 TS -18.0079 152.252 main 448 442 ______P__P____ -1 -18.0285 152.281 -17.9873 152.224 TC 4 131
1921020S15150 1921 3 SP EA NOT_NAMED 1921-01-27 06:00:00 TS -18.1269 152.396 main 451 444 ______P__P____ -1 -18.1346 152.410 -18.1193 152.381 TC 3 132
1921020S15150 1921 3 SP EA NOT_NAMED 1921-01-27 09:00:00 TS -18.2070 152.488 main 453 448 ______P__P____ -1 -18.2029 152.490 -18.2112 152.487 TC 2 134
1921020S15150 1921 3 SP EA NOT_NAMED 1921-01-27 12:00:00 TS -18.2640 152.546 main 448 448 ______P__P____ -1 -18.2497 152.535 -18.2783 152.557 TC 1 138
1921020S15150 1921 3 SP EA NOT_NAMED 1921-01-27 15:00:00 TS -18.3134 152.587 main 457 451 ______P__P____ -1 -18.2913 152.565 -18.3356 152.608 TC 1 145
1921020S15150 1921 3 SP EA NOT_NAMED 1921-01-27 18:00:00 TS -18.3711 152.626 main 451 451 ______P__P____ -1 -18.3438 152.597 -18.3983 152.655 TC 2 149
1921020S15150 1921 3 SP EA NOT_NAMED 1921-01-27 21:00:00 TS -18.4525 152.680 main 455 455 ______P__P____ -1 -18.4237 152.647 -18.4814 152.714 TC 2 146
1921020S15150 1921 3 SP EA NOT_NAMED 1921-01-27 23:00:00 TS -18.5278 152.734 bom main 455 455 ______O__P____ -1 -18.5000 152.700 -18.5556 152.767 TC 3 144
1921020S15150 1921 3 SP EA NOT_NAMED 1921-01-28 00:00:00 TS -18.5838 152.779 main 460 455 ______P__O____ -1 -18.5676 152.758 -18.6000 152.800 TC 5 142
1921020S15150 1921 3 SP EA NOT_NAMED 1921-01-28 03:00:00 TS -18.8057 152.965 main 468 454 ______P__P____ -1 -18.7947 152.952 -18.8168 152.978 TC 6 142
1921020S15150 1921 3 SP EA NOT_NAMED 1921-01-28 06:00:00 TS -19.0579 153.172 main 451 439 ______P__P____ -1 -19.0519 153.167 -19.0639 153.177 TC 7 142
1921020S15150 1921 3 SP EA NOT_NAMED 1921-01-28 09:00:00 TS -19.3329 153.396 main 445 434 ______P__P____ -1 -19.3314 153.399 -19.3344 153.394 TC 7 143
1921020S15150 1921 3 SP EA NOT_NAMED 1921-01-28 12:00:00 TS -19.6235 153.632 main 434 425 ______P__P____ -1 -19.6253 153.641 -19.6216 153.624 TC 7 143
1921020S15150 1921 3 SP EA NOT_NAMED 1921-01-28 15:00:00 TS -19.9222 153.874 main 433 425 ______P__P____ -1 -19.9258 153.885 -19.9186 153.863 TC 8 143
1921020S15150 1921 3 SP EA NOT_NAMED 1921-01-28 18:00:00 TS -20.2217 154.117 main 427 420 ______P__P____ -1 -20.2250 154.126 -20.2185 154.109 TC 7 143
1921020S15150 1921 3 SP EA NOT_NAMED 1921-01-28 21:00:00 TS -20.5149 154.356 main 434 428 ______P__P____ -1 -20.5153 154.356 -20.5145 154.356 TC 7 143
1921020S15150 1921 3 SP EA NOT_NAMED 1921-01-28 23:00:00 TS -20.7032 154.510 990 bom main 432 426 ______O__P____ -1 -20.7000 154.500 990 4 -20.7064 154.519 TC 7 144
1921020S15150 1921 3 SP EA NOT_NAMED 1921-01-29 00:00:00 TS -20.7877 154.568 main 436 431 ______P__O____ -1 -20.7754 154.536 -20.8000 154.600 TC 45 990 6 147
1921020S15150 1921 3 SP EA NOT_NAMED 1921-01-29 03:00:00 TS -21.0308 154.732 main 436 430 ______P__P____ -1 -20.9922 154.625 -21.0695 154.839 TC 6 148
1921020S15150 1921 3 SP EA NOT_NAMED 1921-01-29 06:00:00 TS -21.2610 154.884 main 424 407 ______P__P____ -1 -21.1985 154.697 -21.3235 155.071 TC 5 148
1921020S15150 1921 3 SP EA NOT_NAMED 1921-01-29 09:00:00 TS -21.4814 155.034 main 407 397 ______P__P____ -1 -21.3991 154.770 -21.5636 155.298 TC 5 147
1921020S15150 1921 3 SP EA NOT_NAMED 1921-01-29 12:00:00 TS -21.6953 155.193 main 397 383 ______P__P____ -1 -21.5990 154.865 -21.7915 155.521 TC 5 144
1921020S15150 1921 3 SP EA NOT_NAMED 1921-01-29 15:00:00 TS -21.9059 155.370 main 388 375 ______P__P____ -1 -21.8027 155.000 -22.0091 155.740 TC 6 140
1921020S15150 1921 3 SP EA NOT_NAMED 1921-01-29 18:00:00 TS -22.1165 155.574 main 382 371 ______P__P____ -1 -22.0150 155.193 -22.2179 155.955 TC 6 136
1921020S15150 1921 3 SP EA NOT_NAMED 1921-01-29 21:00:00 TS -22.3300 155.817 main 378 369 ______P__P____ -1 -22.2404 155.465 -22.4197 156.168 TC 6 132
1921020S15150 1921 3 SP EA NOT_NAMED 1921-01-29 23:00:00 TS -22.4756 156.005 bom main 376 376 ______O__P____ -1 -22.4000 155.700 -22.5512 156.309 TC 6 133
1921020S15150 1921 3 SP EA NOT_NAMED 1921-01-30 00:00:00 TS -22.5447 156.070 main 383 376 ______P__P____ -1 -22.4911 155.838 -22.6162 156.379 TC 7 130
1921020S15150 1921 3 SP EA NOT_NAMED 1921-01-30 03:00:00 TS -22.7811 156.398 main 386 386 ______P__P____ -1 -22.7671 156.302 -22.8091 156.590 TC 8 125
1921020S15150 1921 3 SP EA NOT_NAMED 1921-01-30 06:00:00 TS -23.0191 156.816 main 408 408 ______P__O____ -1 -23.0238 156.821 -23.0000 156.800 TC 10 120
1921020S15150 1921 3 SP EA NOT_NAMED 1921-01-30 07:00:00 NR -23.1000 157.000 bom main 421 421 ______O_______ -1 -23.1000 157.000 TC 11 113
1921020S15150 1921 3 SP EA NOT_NAMED 1921-01-30 09:00:00 NR -23.2336 157.363 main 452 447 ______P_______ -1 -23.2336 157.363 TC 11 109
1921020S15150 1921 3 SP EA NOT_NAMED 1921-01-30 12:00:00 NR -23.3917 157.917 main 489 489 ______P_______ -1 -23.3917 157.917 TC 11 105
1921020S15150 1921 3 SP EA NOT_NAMED 1921-01-30 15:00:00 NR -23.5087 158.478 main 543 543 ______P_______ -1 -23.5087 158.478 TC 11 101
1921020S15150 1921 3 SP EA NOT_NAMED 1921-01-30 18:00:00 NR -23.5950 159.046 main 588 588 ______P_______ -1 -23.5950 159.046 TC 11 98
1921020S15150 1921 3 SP EA NOT_NAMED 1921-01-30 21:00:00 NR -23.6615 159.618 main 590 556 ______P_______ -1 -23.6615 159.618 TC 11 97
1921020S15150 1921 3 SP MM NOT_NAMED 1921-01-30 23:00:00 NR -23.7000 160.000 bom main 556 ______O_______ -1 -23.7000 160.000 TC 11 96

デジタル台風データ・検索

IBTrACS Databaseについて

本データベースは、米国NOAAが公開する1842年以降の世界の熱帯低気圧のベストトラックデータアーカイブInternational Best Track Archive for Climate Stewardship (IBTrACS)を、ウェブで閲覧しやすい形式に変換したものです。

最終更新日:2021-10-08